sensor_id;sensor_type;location;lat;lon;timestamp;temperature;humidity
63802;DHT22;49949;43.060;25.624;2022-08-21T00:01:35;23.50;95.70
63802;DHT22;49949;43.060;25.624;2022-08-21T00:04:09;23.40;96.00
63802;DHT22;49949;43.060;25.624;2022-08-21T00:06:36;23.10;98.50
63802;DHT22;49949;43.060;25.624;2022-08-21T00:09:04;23.10;99.90
63802;DHT22;49949;43.060;25.624;2022-08-21T00:11:30;23.00;99.90
63802;DHT22;49949;43.060;25.624;2022-08-21T00:13:56;22.90;99.90
63802;DHT22;49949;43.060;25.624;2022-08-21T00:16:22;22.90;99.90
63802;DHT22;49949;43.060;25.624;2022-08-21T00:18:48;22.80;99.90
63802;DHT22;49949;43.060;25.624;2022-08-21T00:21:15;22.70;99.90
63802;DHT22;49949;43.060;25.624;2022-08-21T00:23:41;22.50;99.90
63802;DHT22;49949;43.060;25.624;2022-08-21T00:26:07;22.40;99.90
63802;DHT22;49949;43.060;25.624;2022-08-21T00:28:33;22.40;99.90
63802;DHT22;49949;43.060;25.624;2022-08-21T00:30:59;22.40;99.90
63802;DHT22;49949;43.060;25.624;2022-08-21T00:33:25;22.40;99.90
63802;DHT22;49949;43.060;25.624;2022-08-21T00:35:51;22.50;99.90
63802;DHT22;49949;43.060;25.624;2022-08-21T00:38:18;22.30;99.90
63802;DHT22;49949;43.060;25.624;2022-08-21T00:40:51;22.10;99.90
63802;DHT22;49949;43.060;25.624;2022-08-21T00:43:20;22.00;99.90
63802;DHT22;49949;43.060;25.624;2022-08-21T00:45:47;21.80;99.90
63802;DHT22;49949;43.060;25.624;2022-08-21T00:48:13;21.70;99.90
63802;DHT22;49949;43.060;25.624;2022-08-21T00:50:44;21.60;99.90
63802;DHT22;49949;43.060;25.624;2022-08-21T00:53:12;21.50;99.90
63802;DHT22;49949;43.060;25.624;2022-08-21T00:55:39;21.40;99.90
63802;DHT22;49949;43.060;25.624;2022-08-21T00:58:08;21.40;99.90
63802;DHT22;49949;43.060;25.624;2022-08-21T01:00:37;21.20;99.90
63802;DHT22;49949;43.060;25.624;2022-08-21T01:03:10;21.20;99.90
63802;DHT22;49949;43.060;25.624;2022-08-21T01:05:36;21.10;99.90
63802;DHT22;49949;43.060;25.624;2022-08-21T01:08:02;21.00;99.90
63802;DHT22;49949;43.060;25.624;2022-08-21T01:10:29;21.00;99.90
63802;DHT22;49949;43.060;25.624;2022-08-21T01:12:57;21.00;99.90
63802;DHT22;49949;43.060;25.624;2022-08-21T01:15:30;20.90;99.90
63802;DHT22;49949;43.060;25.624;2022-08-21T01:17:58;20.90;99.90
63802;DHT22;49949;43.060;25.624;2022-08-21T01:20:24;20.80;99.90
63802;DHT22;49949;43.060;25.624;2022-08-21T01:22:50;20.80;99.90
63802;DHT22;49949;43.060;25.624;2022-08-21T01:25:17;20.80;99.90
63802;DHT22;49949;43.060;25.624;2022-08-21T01:27:45;20.70;99.90
63802;DHT22;49949;43.060;25.624;2022-08-21T01:30:14;20.80;99.90
63802;DHT22;49949;43.060;25.624;2022-08-21T01:32:40;20.80;99.90
63802;DHT22;49949;43.060;25.624;2022-08-21T01:35:07;20.70;99.90
63802;DHT22;49949;43.060;25.624;2022-08-21T01:37:33;20.70;99.90
63802;DHT22;49949;43.060;25.624;2022-08-21T01:39:59;20.80;99.90
63802;DHT22;49949;43.060;25.624;2022-08-21T01:42:25;20.80;99.90
63802;DHT22;49949;43.060;25.624;2022-08-21T01:44:51;20.80;99.90
63802;DHT22;49949;43.060;25.624;2022-08-21T01:47:17;20.80;99.90
63802;DHT22;49949;43.060;25.624;2022-08-21T01:49:44;20.80;99.90
63802;DHT22;49949;43.060;25.624;2022-08-21T01:52:10;20.70;99.90
63802;DHT22;49949;43.060;25.624;2022-08-21T01:54:37;20.60;99.90
63802;DHT22;49949;43.060;25.624;2022-08-21T01:57:03;20.80;99.90
63802;DHT22;49949;43.060;25.624;2022-08-21T01:59:30;20.70;99.90
63802;DHT22;49949;43.060;25.624;2022-08-21T02:01:56;20.80;99.90
63802;DHT22;49949;43.060;25.624;2022-08-21T02:04:22;20.80;99.90
63802;DHT22;49949;43.060;25.624;2022-08-21T02:06:48;20.90;99.90
63802;DHT22;49949;43.060;25.624;2022-08-21T02:09:14;20.80;99.90
63802;DHT22;49949;43.060;25.624;2022-08-21T02:11:40;20.70;99.90
63802;DHT22;49949;43.060;25.624;2022-08-21T02:14:11;20.60;99.90
63802;DHT22;49949;43.060;25.624;2022-08-21T02:16:39;20.70;99.90
63802;DHT22;49949;43.060;25.624;2022-08-21T02:19:05;20.70;99.90
63802;DHT22;49949;43.060;25.624;2022-08-21T02:21:30;20.60;99.90
63802;DHT22;49949;43.060;25.624;2022-08-21T02:23:56;20.70;99.90
63802;DHT22;49949;43.060;25.624;2022-08-21T02:26:22;20.60;99.90
63802;DHT22;49949;43.060;25.624;2022-08-21T02:28:48;20.70;99.90
63802;DHT22;49949;43.060;25.624;2022-08-21T02:31:14;20.70;99.90
63802;DHT22;49949;43.060;25.624;2022-08-21T02:33:40;20.70;99.90
63802;DHT22;49949;43.060;25.624;2022-08-21T02:36:07;20.70;99.90
63802;DHT22;49949;43.060;25.624;2022-08-21T02:38:35;20.70;99.90
63802;DHT22;49949;43.060;25.624;2022-08-21T02:41:06;20.80;99.90
63802;DHT22;49949;43.060;25.624;2022-08-21T02:43:33;20.80;99.90
63802;DHT22;49949;43.060;25.624;2022-08-21T02:45:58;20.80;99.90
63802;DHT22;49949;43.060;25.624;2022-08-21T02:48:27;20.70;99.90
63802;DHT22;49949;43.060;25.624;2022-08-21T02:53:21;20.80;99.90
63802;DHT22;49949;43.060;25.624;2022-08-21T02:55:49;20.80;99.90
63802;DHT22;49949;43.060;25.624;2022-08-21T02:58:18;20.80;99.90
63802;DHT22;49949;43.060;25.624;2022-08-21T03:00:44;20.80;99.90
63802;DHT22;49949;43.060;25.624;2022-08-21T03:03:10;20.80;99.90
63802;DHT22;49949;43.060;25.624;2022-08-21T03:05:36;20.80;99.90
63802;DHT22;49949;43.060;25.624;2022-08-21T03:08:05;20.80;99.90
63802;DHT22;49949;43.060;25.624;2022-08-21T03:10:33;20.80;99.90
63802;DHT22;49949;43.060;25.624;2022-08-21T03:12:59;20.80;99.90
63802;DHT22;49949;43.060;25.624;2022-08-21T03:15:25;20.70;99.90
63802;DHT22;49949;43.060;25.624;2022-08-21T03:17:51;20.70;99.90
63802;DHT22;49949;43.060;25.624;2022-08-21T03:20:20;20.80;99.90
63802;DHT22;49949;43.060;25.624;2022-08-21T03:22:48;20.80;99.90
63802;DHT22;49949;43.060;25.624;2022-08-21T03:25:13;20.80;99.90
63802;DHT22;49949;43.060;25.624;2022-08-21T03:27:39;20.90;99.90
63802;DHT22;49949;43.060;25.624;2022-08-21T03:30:07;20.90;99.90
63802;DHT22;49949;43.060;25.624;2022-08-21T03:32:33;20.90;99.90
63802;DHT22;49949;43.060;25.624;2022-08-21T03:35:01;20.80;99.90
63802;DHT22;49949;43.060;25.624;2022-08-21T03:37:27;20.70;99.90
63802;DHT22;49949;43.060;25.624;2022-08-21T03:39:53;20.80;99.90
63802;DHT22;49949;43.060;25.624;2022-08-21T03:42:18;20.70;99.90
63802;DHT22;49949;43.060;25.624;2022-08-21T03:44:44;20.70;99.90
63802;DHT22;49949;43.060;25.624;2022-08-21T03:47:10;20.70;99.90
63802;DHT22;49949;43.060;25.624;2022-08-21T03:49:36;20.80;99.90
63802;DHT22;49949;43.060;25.624;2022-08-21T03:52:03;20.80;99.90
63802;DHT22;49949;43.060;25.624;2022-08-21T03:54:29;20.90;99.90
63802;DHT22;49949;43.060;25.624;2022-08-21T03:56:55;20.80;99.90
63802;DHT22;49949;43.060;25.624;2022-08-21T03:59:22;21.00;99.90
63802;DHT22;49949;43.060;25.624;2022-08-21T04:01:56;21.10;99.90
63802;DHT22;49949;43.060;25.624;2022-08-21T04:04:22;21.00;99.90
63802;DHT22;49949;43.060;25.624;2022-08-21T04:06:48;20.90;99.90
63802;DHT22;49949;43.060;25.624;2022-08-21T04:09:16;20.90;99.90
63802;DHT22;49949;43.060;25.624;2022-08-21T04:11:42;21.00;99.90
63802;DHT22;49949;43.060;25.624;2022-08-21T04:14:07;21.10;99.90
63802;DHT22;49949;43.060;25.624;2022-08-21T04:16:33;21.20;99.90
63802;DHT22;49949;43.060;25.624;2022-08-21T04:19:00;21.40;99.90
63802;DHT22;49949;43.060;25.624;2022-08-21T04:21:26;21.30;99.90
63802;DHT22;49949;43.060;25.624;2022-08-21T04:23:54;21.50;99.90
63802;DHT22;49949;43.060;25.624;2022-08-21T04:26:21;21.40;99.90
63802;DHT22;49949;43.060;25.624;2022-08-21T04:28:47;21.30;99.90
63802;DHT22;49949;43.060;25.624;2022-08-21T04:31:12;21.40;99.90
63802;DHT22;49949;43.060;25.624;2022-08-21T04:33:38;21.40;99.90
63802;DHT22;49949;43.060;25.624;2022-08-21T04:36:04;21.40;99.90
63802;DHT22;49949;43.060;25.624;2022-08-21T04:38:30;21.50;99.90
63802;DHT22;49949;43.060;25.624;2022-08-21T04:40:57;21.60;99.90
63802;DHT22;49949;43.060;25.624;2022-08-21T04:43:23;21.60;99.90
63802;DHT22;49949;43.060;25.624;2022-08-21T04:45:50;21.50;99.90
63802;DHT22;49949;43.060;25.624;2022-08-21T04:48:21;21.40;99.90
63802;DHT22;49949;43.060;25.624;2022-08-21T04:53:44;21.60;99.90
63802;DHT22;49949;43.060;25.624;2022-08-21T04:56:23;21.50;99.90
63802;DHT22;49949;43.060;25.624;2022-08-21T04:58:53;21.70;99.90
63802;DHT22;49949;43.060;25.624;2022-08-21T05:01:23;21.70;99.90
63802;DHT22;49949;43.060;25.624;2022-08-21T05:03:52;21.60;99.90
63802;DHT22;49949;43.060;25.624;2022-08-21T05:06:20;21.60;99.90
63802;DHT22;49949;43.060;25.624;2022-08-21T05:08:49;21.60;99.90
63802;DHT22;49949;43.060;25.624;2022-08-21T05:11:15;21.50;99.90
63802;DHT22;49949;43.060;25.624;2022-08-21T05:13:42;21.50;99.90
63802;DHT22;49949;43.060;25.624;2022-08-21T05:16:08;21.50;99.90
63802;DHT22;49949;43.060;25.624;2022-08-21T05:18:33;21.50;99.90
63802;DHT22;49949;43.060;25.624;2022-08-21T05:20:59;21.40;99.90
63802;DHT22;49949;43.060;25.624;2022-08-21T05:23:25;21.40;99.90
63802;DHT22;49949;43.060;25.624;2022-08-21T05:25:52;21.40;99.90
63802;DHT22;49949;43.060;25.624;2022-08-21T05:28:18;21.60;99.90
63802;DHT22;49949;43.060;25.624;2022-08-21T05:30:44;21.40;99.90
63802;DHT22;49949;43.060;25.624;2022-08-21T05:33:10;21.50;99.90
63802;DHT22;49949;43.060;25.624;2022-08-21T05:35:36;21.50;99.90
63802;DHT22;49949;43.060;25.624;2022-08-21T05:38:03;21.80;99.90
63802;DHT22;49949;43.060;25.624;2022-08-21T05:40:29;22.30;99.90
63802;DHT22;49949;43.060;25.624;2022-08-21T05:42:56;22.00;99.90
63802;DHT22;49949;43.060;25.624;2022-08-21T05:45:23;22.10;99.90
63802;DHT22;49949;43.060;25.624;2022-08-21T05:47:49;22.10;99.90
63802;DHT22;49949;43.060;25.624;2022-08-21T05:50:15;22.10;99.90
63802;DHT22;49949;43.060;25.624;2022-08-21T05:52:40;22.40;99.90
63802;DHT22;49949;43.060;25.624;2022-08-21T05:55:06;22.40;99.90
63802;DHT22;49949;43.060;25.624;2022-08-21T05:57:32;22.50;99.90
63802;DHT22;49949;43.060;25.624;2022-08-21T05:59:58;22.50;99.90
63802;DHT22;49949;43.060;25.624;2022-08-21T06:02:23;22.50;99.90
63802;DHT22;49949;43.060;25.624;2022-08-21T06:04:49;22.80;99.90
63802;DHT22;49949;43.060;25.624;2022-08-21T06:07:15;22.70;99.90
63802;DHT22;49949;43.060;25.624;2022-08-21T06:09:41;22.80;99.90
63802;DHT22;49949;43.060;25.624;2022-08-21T06:12:09;22.80;99.90
63802;DHT22;49949;43.060;25.624;2022-08-21T06:14:36;22.90;99.90
63802;DHT22;49949;43.060;25.624;2022-08-21T06:17:07;22.90;99.90
63802;DHT22;49949;43.060;25.624;2022-08-21T06:19:34;23.00;99.90
63802;DHT22;49949;43.060;25.624;2022-08-21T06:21:59;23.10;99.90
63802;DHT22;49949;43.060;25.624;2022-08-21T06:24:26;23.70;99.90
63802;DHT22;49949;43.060;25.624;2022-08-21T06:26:52;23.30;99.90
63802;DHT22;49949;43.060;25.624;2022-08-21T06:29:19;23.40;99.90
63802;DHT22;49949;43.060;25.624;2022-08-21T06:31:46;23.50;99.90
63802;DHT22;49949;43.060;25.624;2022-08-21T06:34:12;23.60;99.90
63802;DHT22;49949;43.060;25.624;2022-08-21T06:36:39;23.90;99.90
63802;DHT22;49949;43.060;25.624;2022-08-21T06:39:04;24.40;99.90
63802;DHT22;49949;43.060;25.624;2022-08-21T06:41:30;24.00;99.90
63802;DHT22;49949;43.060;25.624;2022-08-21T06:43:57;24.10;99.90
63802;DHT22;49949;43.060;25.624;2022-08-21T06:46:25;24.20;99.90
63802;DHT22;49949;43.060;25.624;2022-08-21T06:48:51;24.30;99.90
63802;DHT22;49949;43.060;25.624;2022-08-21T06:51:16;24.30;99.90
63802;DHT22;49949;43.060;25.624;2022-08-21T06:53:42;24.30;99.90
63802;DHT22;49949;43.060;25.624;2022-08-21T06:56:08;24.40;99.90
63802;DHT22;49949;43.060;25.624;2022-08-21T06:58:34;24.40;99.90
63802;DHT22;49949;43.060;25.624;2022-08-21T07:01:00;24.50;99.90
63802;DHT22;49949;43.060;25.624;2022-08-21T07:03:29;24.60;99.90
63802;DHT22;49949;43.060;25.624;2022-08-21T07:05:56;24.70;99.90
63802;DHT22;49949;43.060;25.624;2022-08-21T07:08:24;24.70;99.90
63802;DHT22;49949;43.060;25.624;2022-08-21T07:10:50;24.60;99.90
63802;DHT22;49949;43.060;25.624;2022-08-21T07:13:17;24.60;99.90
63802;DHT22;49949;43.060;25.624;2022-08-21T07:15:43;24.70;99.90
63802;DHT22;49949;43.060;25.624;2022-08-21T07:18:10;24.60;99.90
63802;DHT22;49949;43.060;25.624;2022-08-21T07:20:37;24.60;99.90
63802;DHT22;49949;43.060;25.624;2022-08-21T07:23:08;24.60;99.90
63802;DHT22;49949;43.060;25.624;2022-08-21T07:25:34;24.60;99.90
63802;DHT22;49949;43.060;25.624;2022-08-21T07:28:00;24.70;99.90
63802;DHT22;49949;43.060;25.624;2022-08-21T07:30:26;24.70;99.90
63802;DHT22;49949;43.060;25.624;2022-08-21T07:32:52;24.70;99.90
63802;DHT22;49949;43.060;25.624;2022-08-21T07:35:21;24.80;99.90
63802;DHT22;49949;43.060;25.624;2022-08-21T07:37:47;24.90;99.90
63802;DHT22;49949;43.060;25.624;2022-08-21T07:40:14;25.00;99.90
63802;DHT22;49949;43.060;25.624;2022-08-21T07:42:45;25.10;99.90
63802;DHT22;49949;43.060;25.624;2022-08-21T07:45:12;25.20;99.90
63802;DHT22;49949;43.060;25.624;2022-08-21T07:47:38;25.30;99.90
63802;DHT22;49949;43.060;25.624;2022-08-21T07:50:05;25.40;99.90
63802;DHT22;49949;43.060;25.624;2022-08-21T07:52:31;25.40;99.90
63802;DHT22;49949;43.060;25.624;2022-08-21T07:54:58;25.30;99.90
63802;DHT22;49949;43.060;25.624;2022-08-21T07:57:24;25.40;99.90
63802;DHT22;49949;43.060;25.624;2022-08-21T07:59:49;25.30;99.90
63802;DHT22;49949;43.060;25.624;2022-08-21T08:02:26;25.40;99.90
63802;DHT22;49949;43.060;25.624;2022-08-21T08:04:52;25.50;99.90
63802;DHT22;49949;43.060;25.624;2022-08-21T08:07:18;25.50;99.90
63802;DHT22;49949;43.060;25.624;2022-08-21T08:09:44;25.60;99.90
63802;DHT22;49949;43.060;25.624;2022-08-21T08:12:10;25.70;99.90
63802;DHT22;49949;43.060;25.624;2022-08-21T08:14:36;25.80;99.90
63802;DHT22;49949;43.060;25.624;2022-08-21T08:17:02;25.90;99.90
63802;DHT22;49949;43.060;25.624;2022-08-21T08:19:28;25.90;99.90
63802;DHT22;49949;43.060;25.624;2022-08-21T08:21:54;26.00;99.90
63802;DHT22;49949;43.060;25.624;2022-08-21T08:24:20;26.10;99.90
63802;DHT22;49949;43.060;25.624;2022-08-21T08:26:46;26.00;99.90
63802;DHT22;49949;43.060;25.624;2022-08-21T08:29:12;26.10;99.90
63802;DHT22;49949;43.060;25.624;2022-08-21T08:31:38;26.00;99.90
63802;DHT22;49949;43.060;25.624;2022-08-21T08:34:04;26.10;99.90
63802;DHT22;49949;43.060;25.624;2022-08-21T08:36:37;26.20;99.90
63802;DHT22;49949;43.060;25.624;2022-08-21T08:39:04;26.20;99.90
63802;DHT22;49949;43.060;25.624;2022-08-21T08:41:31;26.70;99.90
63802;DHT22;49949;43.060;25.624;2022-08-21T08:44:03;26.60;99.90
63802;DHT22;49949;43.060;25.624;2022-08-21T08:46:41;26.10;99.90
63802;DHT22;49949;43.060;25.624;2022-08-21T08:49:11;26.80;99.90
63802;DHT22;49949;43.060;25.624;2022-08-21T08:54:19;27.70;99.90
63802;DHT22;49949;43.060;25.624;2022-08-21T08:56:46;28.60;99.90
63802;DHT22;49949;43.060;25.624;2022-08-21T08:59:24;28.80;99.90
63802;DHT22;49949;43.060;25.624;2022-08-21T09:01:52;29.30;99.90
63802;DHT22;49949;43.060;25.624;2022-08-21T09:04:22;29.60;99.90
63802;DHT22;49949;43.060;25.624;2022-08-21T09:10:11;30.00;95.80
63802;DHT22;49949;43.060;25.624;2022-08-21T09:23:53;29.60;88.80
63802;DHT22;49949;43.060;25.624;2022-08-21T09:26:24;29.60;89.80
63802;DHT22;49949;43.060;25.624;2022-08-21T09:28:53;29.70;88.80
63802;DHT22;49949;43.060;25.624;2022-08-21T09:31:32;29.90;88.80
63802;DHT22;49949;43.060;25.624;2022-08-21T09:34:00;29.90;87.00
63802;DHT22;49949;43.060;25.624;2022-08-21T09:36:49;30.00;87.30
63802;DHT22;49949;43.060;25.624;2022-08-21T09:39:41;30.00;85.70
63802;DHT22;49949;43.060;25.624;2022-08-21T09:42:08;30.00;86.40
63802;DHT22;49949;43.060;25.624;2022-08-21T09:44:37;30.10;84.80
63802;DHT22;49949;43.060;25.624;2022-08-21T09:47:10;30.20;83.30
63802;DHT22;49949;43.060;25.624;2022-08-21T09:49:39;30.20;80.60
63802;DHT22;49949;43.060;25.624;2022-08-21T09:52:21;30.50;78.10
63802;DHT22;49949;43.060;25.624;2022-08-21T09:54:49;30.60;76.90
63802;DHT22;49949;43.060;25.624;2022-08-21T09:57:27;30.50;76.50
63802;DHT22;49949;43.060;25.624;2022-08-21T10:00:27;30.60;76.70
63802;DHT22;49949;43.060;25.624;2022-08-21T10:03:18;30.60;75.30
63802;DHT22;49949;43.060;25.624;2022-08-21T10:06:00;30.70;74.80
63802;DHT22;49949;43.060;25.624;2022-08-21T10:08:28;30.80;73.20
63802;DHT22;49949;43.060;25.624;2022-08-21T10:11:01;31.10;70.90
63802;DHT22;49949;43.060;25.624;2022-08-21T10:24:20;30.70;67.40
63802;DHT22;49949;43.060;25.624;2022-08-21T10:35:28;30.50;66.70
63802;DHT22;49949;43.060;25.624;2022-08-21T10:40:56;30.40;67.10
63802;DHT22;49949;43.060;25.624;2022-08-21T10:46:12;30.80;67.00
63802;DHT22;49949;43.060;25.624;2022-08-21T10:49:08;31.00;66.70
63802;DHT22;49949;43.060;25.624;2022-08-21T10:51:40;31.30;63.90
63802;DHT22;49949;43.060;25.624;2022-08-21T10:54:13;31.50;62.90
63802;DHT22;49949;43.060;25.624;2022-08-21T10:56:43;31.60;63.10
63802;DHT22;49949;43.060;25.624;2022-08-21T10:59:34;31.80;64.10
63802;DHT22;49949;43.060;25.624;2022-08-21T11:04:50;31.50;59.50
63802;DHT22;49949;43.060;25.624;2022-08-21T11:07:22;31.40;58.60
63802;DHT22;49949;43.060;25.624;2022-08-21T11:09:51;31.20;60.10
63802;DHT22;49949;43.060;25.624;2022-08-21T11:12:25;30.90;60.90
63802;DHT22;49949;43.060;25.624;2022-08-21T11:17:33;31.10;61.20
63802;DHT22;49949;43.060;25.624;2022-08-21T11:20:32;31.10;60.10
63802;DHT22;49949;43.060;25.624;2022-08-21T11:23:23;31.20;59.00
63802;DHT22;49949;43.060;25.624;2022-08-21T11:25:56;31.00;58.10
63802;DHT22;49949;43.060;25.624;2022-08-21T11:28:28;30.80;58.70
63802;DHT22;49949;43.060;25.624;2022-08-21T11:41:56;31.00;57.60
63802;DHT22;49949;43.060;25.624;2022-08-21T11:44:50;31.10;56.60
63802;DHT22;49949;43.060;25.624;2022-08-21T11:50:20;30.90;56.80
63802;DHT22;49949;43.060;25.624;2022-08-21T11:58:25;30.70;55.30
63802;DHT22;49949;43.060;25.624;2022-08-21T12:00:58;30.60;56.30
63802;DHT22;49949;43.060;25.624;2022-08-21T12:03:30;30.80;56.60
63802;DHT22;49949;43.060;25.624;2022-08-21T12:06:09;31.20;55.40
63802;DHT22;49949;43.060;25.624;2022-08-21T12:09:00;31.50;53.80
63802;DHT22;49949;43.060;25.624;2022-08-21T12:11:27;31.80;51.50
63802;DHT22;49949;43.060;25.624;2022-08-21T12:16:33;31.80;51.20
63802;DHT22;49949;43.060;25.624;2022-08-21T12:19:07;31.80;51.70
63802;DHT22;49949;43.060;25.624;2022-08-21T12:21:45;31.30;51.60
63802;DHT22;49949;43.060;25.624;2022-08-21T12:26:53;31.10;51.90
63802;DHT22;49949;43.060;25.624;2022-08-21T12:29:28;31.00;51.90
63802;DHT22;49949;43.060;25.624;2022-08-21T12:32:04;31.00;53.60
63802;DHT22;49949;43.060;25.624;2022-08-21T12:35:14;31.10;53.70
63802;DHT22;49949;43.060;25.624;2022-08-21T12:37:48;31.20;52.70
63802;DHT22;49949;43.060;25.624;2022-08-21T12:42:48;31.30;51.80
63802;DHT22;49949;43.060;25.624;2022-08-21T12:45:19;31.10;51.40
63802;DHT22;49949;43.060;25.624;2022-08-21T12:51:15;30.80;52.70
63802;DHT22;49949;43.060;25.624;2022-08-21T12:53:54;30.60;53.40
63802;DHT22;49949;43.060;25.624;2022-08-21T12:56:24;30.60;55.40
63802;DHT22;49949;43.060;25.624;2022-08-21T12:58:54;30.60;54.00
63802;DHT22;49949;43.060;25.624;2022-08-21T13:01:46;30.50;54.60
63802;DHT22;49949;43.060;25.624;2022-08-21T13:04:16;30.60;55.50
63802;DHT22;49949;43.060;25.624;2022-08-21T13:06:45;30.50;55.30
63802;DHT22;49949;43.060;25.624;2022-08-21T13:09:14;30.10;59.50
63802;DHT22;49949;43.060;25.624;2022-08-21T13:11:42;29.60;61.40
63802;DHT22;49949;43.060;25.624;2022-08-21T13:14:20;29.40;63.70
63802;DHT22;49949;43.060;25.624;2022-08-21T13:16:56;29.30;65.20
63802;DHT22;49949;43.060;25.624;2022-08-21T13:19:22;29.00;67.50
63802;DHT22;49949;43.060;25.624;2022-08-21T13:21:48;28.50;69.50
63802;DHT22;49949;43.060;25.624;2022-08-21T13:24:36;28.30;71.10
63802;DHT22;49949;43.060;25.624;2022-08-21T13:27:02;28.10;73.00
63802;DHT22;49949;43.060;25.624;2022-08-21T13:29:32;27.90;73.70
63802;DHT22;49949;43.060;25.624;2022-08-21T13:32:04;27.60;75.10
63802;DHT22;49949;43.060;25.624;2022-08-21T13:34:36;27.50;76.60
63802;DHT22;49949;43.060;25.624;2022-08-21T13:37:07;27.30;77.90
63802;DHT22;49949;43.060;25.624;2022-08-21T13:39:34;27.20;79.30
63802;DHT22;49949;43.060;25.624;2022-08-21T13:42:02;27.00;79.70
63802;DHT22;49949;43.060;25.624;2022-08-21T13:44:43;26.80;80.60
63802;DHT22;49949;43.060;25.624;2022-08-21T13:47:12;26.70;81.30
63802;DHT22;49949;43.060;25.624;2022-08-21T13:49:51;26.60;83.00
63802;DHT22;49949;43.060;25.624;2022-08-21T13:52:26;26.50;85.50
63802;DHT22;49949;43.060;25.624;2022-08-21T13:55:00;26.30;89.90
63802;DHT22;49949;43.060;25.624;2022-08-21T13:57:33;26.20;90.90
63802;DHT22;49949;43.060;25.624;2022-08-21T14:00:25;26.00;95.00
63802;DHT22;49949;43.060;25.624;2022-08-21T14:02:53;25.90;90.90
63802;DHT22;49949;43.060;25.624;2022-08-21T14:05:28;25.70;95.20
63802;DHT22;49949;43.060;25.624;2022-08-21T14:08:08;25.60;99.90
63802;DHT22;49949;43.060;25.624;2022-08-21T14:10:45;25.50;99.90
63802;DHT22;49949;43.060;25.624;2022-08-21T14:16:03;25.30;99.90
63802;DHT22;49949;43.060;25.624;2022-08-21T14:18:47;25.20;99.90
63802;DHT22;49949;43.060;25.624;2022-08-21T14:21:13;25.10;99.90
63802;DHT22;49949;43.060;25.624;2022-08-21T14:24:02;25.00;99.90
63802;DHT22;49949;43.060;25.624;2022-08-21T14:26:28;24.70;99.90
63802;DHT22;49949;43.060;25.624;2022-08-21T14:28:59;24.50;99.90
63802;DHT22;49949;43.060;25.624;2022-08-21T14:31:29;24.30;99.90
63802;DHT22;49949;43.060;25.624;2022-08-21T14:33:56;24.20;99.90
63802;DHT22;49949;43.060;25.624;2022-08-21T14:36:21;24.00;99.90
63802;DHT22;49949;43.060;25.624;2022-08-21T14:38:48;23.80;99.90
63802;DHT22;49949;43.060;25.624;2022-08-21T14:41:19;23.70;99.90
63802;DHT22;49949;43.060;25.624;2022-08-21T14:43:47;23.50;99.90
63802;DHT22;49949;43.060;25.624;2022-08-21T14:46:24;23.40;99.90
63802;DHT22;49949;43.060;25.624;2022-08-21T14:48:50;23.30;99.90
63802;DHT22;49949;43.060;25.624;2022-08-21T14:51:17;23.20;99.90
63802;DHT22;49949;43.060;25.624;2022-08-21T14:53:43;23.20;99.90
63802;DHT22;49949;43.060;25.624;2022-08-21T14:56:10;23.10;99.90
63802;DHT22;49949;43.060;25.624;2022-08-21T14:58:40;23.20;99.90
63802;DHT22;49949;43.060;25.624;2022-08-21T15:01:08;23.20;99.90
63802;DHT22;49949;43.060;25.624;2022-08-21T15:03:34;23.20;99.90
63802;DHT22;49949;43.060;25.624;2022-08-21T15:06:01;23.20;99.90
63802;DHT22;49949;43.060;25.624;2022-08-21T15:08:27;23.20;99.90
63802;DHT22;49949;43.060;25.624;2022-08-21T15:10:53;23.20;99.90
63802;DHT22;49949;43.060;25.624;2022-08-21T15:13:20;23.10;99.90
63802;DHT22;49949;43.060;25.624;2022-08-21T15:15:48;23.20;99.90
63802;DHT22;49949;43.060;25.624;2022-08-21T15:18:14;23.10;99.90
63802;DHT22;49949;43.060;25.624;2022-08-21T15:20:40;23.10;99.90
63802;DHT22;49949;43.060;25.624;2022-08-21T15:23:07;22.90;99.90
63802;DHT22;49949;43.060;25.624;2022-08-21T15:25:34;22.90;99.90
63802;DHT22;49949;43.060;25.624;2022-08-21T15:28:00;22.80;99.90
63802;DHT22;49949;43.060;25.624;2022-08-21T15:30:27;22.80;99.90
63802;DHT22;49949;43.060;25.624;2022-08-21T15:32:54;22.70;99.90
63802;DHT22;49949;43.060;25.624;2022-08-21T15:35:20;22.50;99.90
63802;DHT22;49949;43.060;25.624;2022-08-21T15:37:45;22.40;99.90
63802;DHT22;49949;43.060;25.624;2022-08-21T15:40:11;22.40;99.90
63802;DHT22;49949;43.060;25.624;2022-08-21T15:42:39;22.40;99.90
63802;DHT22;49949;43.060;25.624;2022-08-21T15:45:06;22.30;99.90
63802;DHT22;49949;43.060;25.624;2022-08-21T15:47:34;22.30;99.90
63802;DHT22;49949;43.060;25.624;2022-08-21T15:50:01;22.10;99.90
63802;DHT22;49949;43.060;25.624;2022-08-21T15:52:26;22.20;99.90
63802;DHT22;49949;43.060;25.624;2022-08-21T15:54:52;22.10;99.90
63802;DHT22;49949;43.060;25.624;2022-08-21T15:57:20;22.10;99.90
63802;DHT22;49949;43.060;25.624;2022-08-21T15:59:59;22.20;99.90
63802;DHT22;49949;43.060;25.624;2022-08-21T16:02:33;22.00;99.90
63802;DHT22;49949;43.060;25.624;2022-08-21T16:04:59;21.90;99.90
63802;DHT22;49949;43.060;25.624;2022-08-21T16:07:25;21.80;99.90
63802;DHT22;49949;43.060;25.624;2022-08-21T16:09:51;21.90;99.90
63802;DHT22;49949;43.060;25.624;2022-08-21T16:12:21;21.80;99.90
63802;DHT22;49949;43.060;25.624;2022-08-21T16:14:47;21.90;99.90
63802;DHT22;49949;43.060;25.624;2022-08-21T16:17:15;21.90;99.90
63802;DHT22;49949;43.060;25.624;2022-08-21T16:19:41;22.00;99.90
63802;DHT22;49949;43.060;25.624;2022-08-21T16:22:07;22.00;99.90
63802;DHT22;49949;43.060;25.624;2022-08-21T16:24:33;22.00;99.90
63802;DHT22;49949;43.060;25.624;2022-08-21T16:27:01;22.00;99.90
63802;DHT22;49949;43.060;25.624;2022-08-21T16:29:30;22.00;99.90
63802;DHT22;49949;43.060;25.624;2022-08-21T16:31:56;21.90;99.90
63802;DHT22;49949;43.060;25.624;2022-08-21T16:34:22;21.90;99.90
63802;DHT22;49949;43.060;25.624;2022-08-21T16:36:48;21.90;99.90
63802;DHT22;49949;43.060;25.624;2022-08-21T16:39:13;21.90;99.90
63802;DHT22;49949;43.060;25.624;2022-08-21T16:41:39;21.90;99.90
63802;DHT22;49949;43.060;25.624;2022-08-21T16:44:05;21.90;99.90
63802;DHT22;49949;43.060;25.624;2022-08-21T16:46:34;21.90;99.90
63802;DHT22;49949;43.060;25.624;2022-08-21T16:49:01;22.00;99.90
63802;DHT22;49949;43.060;25.624;2022-08-21T16:51:27;21.90;99.90
63802;DHT22;49949;43.060;25.624;2022-08-21T16:53:56;21.90;99.90